Terminal Aerodrome Forecast
Issued by NWS

Current Version | Previous Version | Text Only | Print | Product List | Glossary Off
Versions: 1 2 3 4 5 6 7 8 9 10 11 12 13 14 15 16 17 18 19 20

000
FTUS41 KPBZ 281700 RRA
TAFHLG
TAF
KHLG 281747Z 2818/0118 12003KT P6SM BKN120
     FM010400 10004KT P6SM OVC060
     FM010700 12006KT 2SM -SN OVC015
     FM011300 18006KT 1SM -SN OVC008
     FM011700 18005KT 3SM -RASN OVC012=

USA.gov is the U.S. government's official web portal to all federal, state and local government web resources and services.